Impacts TAF Board
For situational awareness. Not to be used for flight planning purposes.
IDs:

KMSY - New Orleans/Armstron, LA, US

Issued at 2339 UTC 05 Dec 2020
Updated at 0227 UTC 06 Dec 2020
Potential Impact None Slight Moderate High
Time0153Z 06/03Z 06/04Z 06/05Z 06/06Z 06/07Z 06/08Z 06/09Z 06/10Z 06/11Z 06/12Z 06/13Z 06/14Z 06/15Z>>
Type OBS PRVL PRVL PRVL PRVL PRVL PRVL PRVL PRVL PRVL PRVL PRVL PRVL PRVL
VIS 10 >6 >6 >6 >6 >6 >6 >6 >6 >6 >6 >6 >6 >6
CIG 110 150 150 150 150 150 150 150 150 150 150 150 150 150
Cover OVC OVC OVC OVC OVC OVC OVC OVC OVC OVC OVC OVC OVC OVC
FltCat VFR VFR VFR VFR VFR VFR VFR VFR VFR VFR VFR VFR VFR VFR
WX -- -- -- -- -- -- -- -- -- -- -- -- -- --
WDir 150 VRB VRB VRB VRB VRB VRB VRB VRB VRB VRB VRB VRB VRB
WSpd 4 3 3 3 3 3 3 3 3 3 3 3 3 3
WGst -- -- -- -- -- -- -- -- -- -- -- -- -- --
Raw TAF
KMSY 052339Z 0600/0706 VRB03KT P6SM OVC150
  FM062000 33005KT P6SM -SHRA SCT020 OVC045
  FM070100 29005KT P6SM BKN025
  FM070500 28005KT P6SM SCT050


Raw METAR
KMSY 060153Z 15004KT 10SM OVC110 12/06 A3016 RMK AO2 PRESFR SLP216 T01220061
KMSY 060123Z 00000KT 10SM OVC110 12/06 A3018 RMK AO2 T01220061
KMSY 060053Z 00000KT 10SM OVC140 12/06 A3018 RMK AO2 SLP222 T01220056
KMSY 052353Z 26003KT 10SM OVC150 12/06 A3019 RMK AO2 SLP224 T01220061 10144 20122 51012

METAR Board
Radar Display
Forecast Discussion
For situational awareness. Not to be used for flight planning purposes.